Taunsa Weather



Taunsa's Current Weather

Temprature 43.69o scattered clouds

scattered clouds

Rain: 0 %

Min Temprature43.69o
Max Temprature43.69o
Humidity24
Wind Speed6.37 m/h
Sun Rise05:42:44
Sun Set19:01:56
Current Time: 13-Aug-2020 19:21:27
Lat/Lon: 30.7, 70.65




Taunsa's Geo Location



Taunsa's Weather Forecast

Time Overall Temp Min Temp Max Temp Humidity Wind Speed Rain
13-Aug-2020 (Thu)
20:00:00 few clouds 43.570 41.760 43.570 26 9.23 m/h 0 %
23:00:00 few clouds 40.850 39.620 40.850 30 8.79 m/h 0 %
14-Aug-2020 (Fri)
02:00:00 broken clouds 38.820 38.380 38.820 34 8.49 m/h 0 %
05:00:00 broken clouds 37.160 37.090 37.160 38 5.91 m/h 0 %
08:00:00 clear sky 38.020 38.020 38.020 39 3.22 m/h 0 %
11:00:00 clear sky 41.640 41.640 41.640 31 2.65 m/h 0 %
14:00:00 few clouds 44.410 44.410 44.410 26 1.23 m/h 0 %
17:00:00 light rain 42.890 42.890 42.890 28 6.89 m/h 22 %
20:00:00 light rain 41.380 41.380 41.380 29 6.91 m/h 52 %
23:00:00 scattered clouds 38.760 38.760 38.760 34 7.14 m/h 0 %
15-Aug-2020 (Sat)
02:00:00 broken clouds 38.460 38.460 38.460 34 7.25 m/h 0 %
05:00:00 scattered clouds 37.200 37.200 37.200 37 3.53 m/h 0 %
08:00:00 clear sky 40.240 40.240 40.240 31 2.58 m/h 0 %
11:00:00 clear sky 43.130 43.130 43.130 26 1.65 m/h 0 %
14:00:00 clear sky 45.340 45.340 45.340 22 1.02 m/h 0 %
17:00:00 few clouds 45.770 45.770 45.770 20 4.25 m/h 0 %
20:00:00 clear sky 42.660 42.660 42.660 24 8.4 m/h 0 %
23:00:00 clear sky 40.860 40.860 40.860 26 5.91 m/h 0 %
16-Aug-2020 (Sun)
02:00:00 clear sky 39.780 39.780 39.780 27 3.05 m/h 0 %
05:00:00 clear sky 37.870 37.870 37.870 32 2.03 m/h 0 %
08:00:00 clear sky 39.350 39.350 39.350 32 5.27 m/h 0 %
11:00:00 clear sky 43.360 43.360 43.360 25 5.69 m/h 0 %
14:00:00 clear sky 46.140 46.140 46.140 20 3.28 m/h 0 %
17:00:00 few clouds 46.120 46.120 46.120 19 2.15 m/h 0 %
20:00:00 scattered clouds 43.370 43.370 43.370 23 6.89 m/h 0 %
23:00:00 few clouds 40.480 40.480 40.480 28 7.36 m/h 0 %
17-Aug-2020 (Mon)
02:00:00 clear sky 39.290 39.290 39.290 32 3.93 m/h 0 %
05:00:00 clear sky 37.440 37.440 37.440 37 0.66 m/h 0 %
08:00:00 few clouds 38.420 38.420 38.420 37 1.2 m/h 0 %
11:00:00 few clouds 42.410 42.410 42.410 29 1.41 m/h 0 %
14:00:00 scattered clouds 45.230 45.230 45.230 23 3.56 m/h 0 %
17:00:00 broken clouds 44.680 44.680 44.680 24 5.17 m/h 0 %
20:00:00 overcast clouds 41.650 41.650 41.650 28 6.62 m/h 0 %
23:00:00 overcast clouds 38.100 38.100 38.100 37 10.04 m/h 0 %
18-Aug-2020 (Tue)
02:00:00 scattered clouds 36.640 36.640 36.640 40 7.49 m/h 0 %
05:00:00 few clouds 35.460 35.460 35.460 43 6.41 m/h 0 %
08:00:00 clear sky 38.110 38.110 38.110 37 4.93 m/h 0 %
11:00:00 clear sky 43.070 43.070 43.070 27 2.2 m/h 0 %
14:00:00 few clouds 45.570 45.570 45.570 22 5.27 m/h 0 %
17:00:00 scattered clouds 45.020 45.020 45.020 21 6.62 m/h 0 %

Famous Cities (60)